Terminal Aerodrome Forecast
Issued by NWS Sioux Falls, SD

Home | Current Version | Previous Version | Text Only | Print | Product List | Glossary On
Versions: 1 2 3 4 5 6 7 8 9 10 11 12 13 14 15 16 17 18 19 20 21 22 23 24 25 26 27 28 29 30 31 32 33
000
FTUS43 KFSD 151742
TAFSUX
TAF
KSUX 151742Z 1518/1618 01012G20KT P6SM BKN040
     FM152000 01013G18KT P6SM BKN050
     FM152200 36007KT P6SM SCT050
     FM160100 VRB03KT P6SM SKC
     FM161000 11003KT P6SM MIFG SKC
     FM161400 16007KT P6SM SCT035=

USA.gov is the U.S. government's official web portal to all federal, state and local government web resources and services.